Reid Restricted Landing Area

Jump to: basic info | weather | runways | comments

Related pages: nearby airports | nearby navaids | notams | map

Basic information (top)

Codes: 6IL6
Location: lon 42.118401, lat -88.407898, elev 920 ft / 280 m msl
Status: small_airport

Weather (top)

Current conditions for Dupage Airport 15nm (27km) SSE (rec'd 2014/11/23 06:52Z):

KDPA 230652Z AUTO 18012KT 8SM OVC010 10/08 A2981 RMK AO2 SLP098 T01000078

Airport forecast for Dupage Airport 15nm (27km) SSE (rec'd 2014/11/23 06:42Z):

TAF KDPA 230540Z 2306/2406 20012KT 6SM BR BKN020 OVC040 WS020/21045KT 
     FM231200 20013KT 6SM BR VCSH BKN018 OVC030 
     FM231600 18014G20KT 6SM -SHRA BR SCT007 BKN015 OVC025 
     FM232200 15012G20KT 2SM RA BR OVC006 
     FM240300 18010KT 2SM RA BR OVC004

Runways (top)

E/W: 3,000 x 105 ft (914 x 32 m) — grass — not lighted

N/S: 2,100 x 105 ft (640 x 32 m) — grass — not lighted

Latest comments (top)

No comments yet for Reid Restricted Landing Area

More... (top)

See also NOTAMs and nearby airports and navaids, or visit the Reid Restricted Landing Area page at the main OurAirports website..